createdAt,value
2022-10-21T00:04:10.706Z,98173.78
2022-10-21T00:06:37.154Z,98178.22
2022-10-21T00:09:03.801Z,98186.34
2022-10-21T00:11:30.311Z,98181.41
2022-10-21T00:13:56.780Z,98173.69
2022-10-21T00:16:23.229Z,98167.66
2022-10-21T00:18:49.708Z,98173.81
2022-10-21T00:21:21.733Z,98153.97
2022-10-21T00:23:49.858Z,98156.66
2022-10-21T00:26:17.941Z,98140.59
2022-10-21T00:28:44.835Z,98134.22
2022-10-21T00:31:13.692Z,98116.31
2022-10-21T00:33:40.511Z,98104.03
2022-10-21T00:36:08.180Z,98086.81
2022-10-21T00:38:35.735Z,98072.63
2022-10-21T00:41:02.477Z,98078.13
2022-10-21T00:43:30.029Z,98074.63
2022-10-21T00:46:05.601Z,98065.97
2022-10-21T00:48:40.905Z,98067.38
2022-10-21T00:51:10.882Z,98073.97
2022-10-21T00:53:41.077Z,98083.53
2022-10-21T00:56:16.836Z,98100.19
2022-10-21T00:58:45.201Z,98104.03
2022-10-21T01:01:11.833Z,98091.38
2022-10-21T01:03:38.515Z,98086.75
2022-10-21T01:06:09.081Z,98094.16
2022-10-21T01:08:36.238Z,98114.28
2022-10-21T01:11:03.765Z,98113.97
2022-10-21T01:13:44.034Z,98103.28
2022-10-21T01:16:23.175Z,98101.44
2022-10-21T01:19:37.260Z,98104.72
2022-10-21T01:22:15.750Z,98092.81
2022-10-21T01:24:45.190Z,98087.19
2022-10-21T01:27:42.734Z,98075.75
2022-10-21T01:30:17.956Z,98076.47
2022-10-21T01:33:07.951Z,98074.75
2022-10-21T01:35:47.549Z,98082.63
2022-10-21T01:38:23.110Z,98076.69
2022-10-21T01:41:04.158Z,98070.72
2022-10-21T01:43:50.175Z,98069.19
2022-10-21T01:46:27.870Z,98071.66
2022-10-21T01:48:59.793Z,98069.41
2022-10-21T01:51:28.188Z,98057.25
2022-10-21T01:54:28.583Z,98053.50
2022-10-21T01:56:57.459Z,98059.66
2022-10-21T01:59:26.692Z,98049.28
2022-10-21T02:01:55.072Z,98047.06
2022-10-21T02:04:23.209Z,98038.59
2022-10-21T02:06:49.865Z,98030.63
2022-10-21T02:09:16.403Z,98030.63
2022-10-21T02:11:47.016Z,98031.00
2022-10-21T02:14:36.187Z,98031.94
2022-10-21T02:17:03.207Z,98030.84
2022-10-21T02:19:32.761Z,98027.31
2022-10-21T02:22:02.487Z,98024.56
2022-10-21T02:24:38.848Z,98024.75
2022-10-21T02:27:05.585Z,98026.94
2022-10-21T02:29:37.295Z,98015.91
2022-10-21T02:32:05.175Z,98010.47
2022-10-21T02:34:51.611Z,98001.53
2022-10-21T02:40:14.650Z,97978.22
2022-10-21T02:42:47.333Z,97975.19
2022-10-21T02:45:14.026Z,97988.41
2022-10-21T02:47:43.117Z,97975.84
2022-10-21T02:50:09.658Z,97974.09
2022-10-21T02:52:36.219Z,97970.47
2022-10-21T02:55:02.785Z,97970.88
2022-10-21T02:57:29.263Z,97970.69
2022-10-21T02:59:55.739Z,97965.41
2022-10-21T03:02:22.361Z,97967.28
2022-10-21T03:04:48.790Z,97969.09
2022-10-21T03:07:15.356Z,97966.56
2022-10-21T03:09:42.181Z,97968.31
2022-10-21T03:12:08.670Z,97962.84
2022-10-21T03:14:35.121Z,97958.19
2022-10-21T03:17:01.603Z,97953.25
2022-10-21T03:19:28.717Z,97959.56
2022-10-21T03:21:55.218Z,97955.19
2022-10-21T03:24:28.428Z,97954.16
2022-10-21T03:26:56.278Z,97950.69
2022-10-21T03:29:22.952Z,97958.91
2022-10-21T03:31:49.541Z,97957.22
2022-10-21T03:34:16.197Z,97954.50
2022-10-21T03:36:42.746Z,97953.09
2022-10-21T03:39:11.523Z,97948.56
2022-10-21T03:41:38.220Z,97956.00
2022-10-21T03:44:04.718Z,97946.88
2022-10-21T03:46:31.416Z,97947.63
2022-10-21T03:49:02.771Z,97945.63
2022-10-21T03:51:32.227Z,97959.31
2022-10-21T03:53:58.733Z,97954.63
2022-10-21T03:56:25.237Z,97951.19
2022-10-21T03:58:55.118Z,97948.13
2022-10-21T04:01:25.115Z,97948.28
2022-10-21T04:03:51.594Z,97954.16
2022-10-21T04:06:18.076Z,97948.44
2022-10-21T04:08:44.713Z,97936.72
2022-10-21T04:11:11.204Z,97942.19
2022-10-21T04:13:37.705Z,97933.56
2022-10-21T04:16:07.603Z,97933.13
2022-10-21T04:18:34.549Z,97931.78
2022-10-21T04:21:01.153Z,97927.97
2022-10-21T04:23:27.656Z,97923.66
2022-10-21T04:25:54.141Z,97925.16
2022-10-21T04:28:20.589Z,97919.06
2022-10-21T04:30:47.062Z,97921.56
2022-10-21T04:33:13.602Z,97919.84
2022-10-21T04:35:40.362Z,97913.38
2022-10-21T04:38:07.259Z,97923.63
2022-10-21T04:40:34.256Z,97923.78
2022-10-21T04:43:01.439Z,97921.47
2022-10-21T04:45:28.038Z,97911.97
2022-10-21T04:47:54.572Z,97922.84
2022-10-21T04:50:21.130Z,97920.94
2022-10-21T04:52:47.564Z,97918.66
2022-10-21T04:55:13.990Z,97925.75
2022-10-21T04:57:40.553Z,97928.09
2022-10-21T05:00:07.910Z,97922.47
2022-10-21T05:02:34.438Z,97917.31
2022-10-21T05:05:01.013Z,97916.31
2022-10-21T05:07:27.668Z,97907.38
2022-10-21T05:09:54.124Z,97899.31
2022-10-21T05:12:20.592Z,97894.03
2022-10-21T05:14:47.087Z,97896.94
2022-10-21T05:17:13.549Z,97898.84
2022-10-21T05:19:40.033Z,97888.03
2022-10-21T05:22:06.522Z,97888.50
2022-10-21T05:24:32.977Z,97881.81
2022-10-21T05:26:59.487Z,97875.03
2022-10-21T05:29:25.957Z,97870.41
2022-10-21T05:31:52.413Z,97860.28
2022-10-21T05:34:18.909Z,97857.38
2022-10-21T05:36:47.831Z,97855.78
2022-10-21T05:39:15.247Z,97858.22
2022-10-21T05:41:44.164Z,97856.25
2022-10-21T05:44:14.186Z,97849.81
2022-10-21T05:46:40.641Z,97855.56
2022-10-21T05:49:07.547Z,97852.91
2022-10-21T05:51:34.203Z,97852.00
2022-10-21T05:54:02.845Z,97859.84
2022-10-21T05:56:29.447Z,97858.13
2022-10-21T05:58:55.919Z,97861.47
2022-10-21T06:01:22.545Z,97857.31
2022-10-21T06:03:49.282Z,97863.06
2022-10-21T06:06:15.899Z,97874.97
2022-10-21T06:08:42.447Z,97875.16
2022-10-21T06:11:17.449Z,97872.66
2022-10-21T06:13:43.944Z,97879.63
2022-10-21T06:16:11.205Z,97884.41
2022-10-21T06:18:38.519Z,97886.00
2022-10-21T06:21:05.464Z,97894.56
2022-10-21T06:23:32.013Z,97899.22
2022-10-21T06:26:03.215Z,97901.88
2022-10-21T06:28:32.782Z,97915.69
2022-10-21T06:30:59.424Z,97920.22
2022-10-21T06:33:27.202Z,97924.34
2022-10-21T06:36:03.788Z,97930.78
2022-10-21T06:38:32.220Z,97940.84
2022-10-21T06:41:06.897Z,97936.16
2022-10-21T06:43:35.753Z,97940.50
2022-10-21T06:46:04.133Z,97941.22
2022-10-21T06:48:30.778Z,97946.56
2022-10-21T06:51:02.316Z,97946.56
2022-10-21T06:53:30.164Z,97944.59
2022-10-21T06:56:08.970Z,97947.72
2022-10-21T06:58:36.844Z,97953.03
2022-10-21T07:01:21.445Z,97949.66
2022-10-21T07:03:57.569Z,97942.72
2022-10-21T07:06:24.088Z,97947.03
2022-10-21T07:08:57.776Z,97941.13
2022-10-21T07:11:25.650Z,97935.38
2022-10-21T07:13:52.185Z,97930.88
2022-10-21T07:16:27.334Z,97933.72
2022-10-21T07:18:55.256Z,97924.97
2022-10-21T07:21:24.152Z,97925.75
2022-10-21T07:23:52.330Z,97922.78
2022-10-21T07:26:21.095Z,97917.50
2022-10-21T07:28:48.106Z,97918.63
2022-10-21T07:31:19.541Z,97920.84
2022-10-21T07:33:46.681Z,97928.50
2022-10-21T07:36:22.311Z,97928.06
2022-10-21T07:38:50.288Z,97931.25
2022-10-21T07:41:22.745Z,97934.28
2022-10-21T07:43:50.449Z,97938.56
2022-10-21T07:46:18.515Z,97932.69
2022-10-21T07:48:45.009Z,97936.25
2022-10-21T07:51:14.221Z,97930.81
2022-10-21T07:53:41.308Z,97929.56
2022-10-21T07:56:17.197Z,97935.69
2022-10-21T07:58:44.537Z,97942.38
2022-10-21T08:01:11.499Z,97935.22
2022-10-21T08:03:38.711Z,97934.31
2022-10-21T08:06:06.137Z,97936.06
2022-10-21T08:08:33.651Z,97928.66
2022-10-21T08:11:00.499Z,97921.72
2022-10-21T08:13:27.134Z,97925.38
2022-10-21T08:15:56.809Z,97929.91
2022-10-21T08:18:23.941Z,97924.47
2022-10-21T08:20:50.400Z,97932.00
2022-10-21T08:23:19.123Z,97943.53
2022-10-21T08:25:54.228Z,97952.06
2022-10-21T08:28:22.117Z,97960.16
2022-10-21T08:30:48.666Z,97962.19
2022-10-21T08:33:15.986Z,97962.91
2022-10-21T08:35:43.315Z,97962.81
2022-10-21T08:38:10.870Z,97963.00
2022-10-21T08:40:45.795Z,97967.72
2022-10-21T08:43:31.329Z,97974.91
2022-10-21T08:46:09.487Z,97982.28
2022-10-21T08:48:47.309Z,97980.69
2022-10-21T08:51:33.524Z,97976.78
2022-10-21T08:54:12.198Z,97982.88
2022-10-21T08:56:38.654Z,97989.25
2022-10-21T08:59:18.938Z,97985.19
2022-10-21T09:01:57.036Z,97986.88
2022-10-21T09:04:29.381Z,97984.38
2022-10-21T09:07:13.695Z,97980.06
2022-10-21T09:09:55.703Z,97988.97
2022-10-21T09:12:31.352Z,97993.19
2022-10-21T09:15:10.310Z,97995.75
2022-10-21T09:18:05.409Z,97998.47
2022-10-21T09:20:37.898Z,97992.38
2022-10-21T09:23:30.130Z,97998.94
2022-10-21T09:26:01.342Z,98007.75
2022-10-21T09:28:30.362Z,98014.31
2022-10-21T09:31:00.753Z,98007.72
2022-10-21T09:33:31.184Z,98016.84
2022-10-21T09:36:05.645Z,98017.72
2022-10-21T09:38:47.342Z,98014.53
2022-10-21T09:43:53.786Z,98019.41
2022-10-21T09:46:20.320Z,98025.97
2022-10-21T09:51:40.261Z,98025.53
2022-10-21T09:54:14.908Z,98027.50
2022-10-21T09:56:49.935Z,98036.63
2022-10-21T09:59:19.440Z,98032.63
2022-10-21T10:01:46.773Z,98034.06
2022-10-21T10:04:33.627Z,98021.50
2022-10-21T10:07:02.666Z,98029.09
2022-10-21T10:09:30.753Z,98029.81
2022-10-21T10:12:01.893Z,98030.06
2022-10-21T10:14:30.370Z,98022.63
2022-10-21T10:16:58.448Z,98025.53
2022-10-21T10:19:28.071Z,98019.41
2022-10-21T10:22:10.389Z,98014.28
2022-10-21T10:24:40.462Z,98026.53
2022-10-21T10:27:23.347Z,98022.88
2022-10-21T10:29:55.804Z,98023.59
2022-10-21T10:32:26.570Z,98015.22
2022-10-21T10:34:57.463Z,98014.22
2022-10-21T10:37:31.558Z,98013.72
2022-10-21T10:40:00.303Z,98006.59
2022-10-21T10:42:33.023Z,98000.75
2022-10-21T10:45:05.272Z,98007.66
2022-10-21T10:47:42.888Z,98010.41
2022-10-21T10:50:57.116Z,98024.00
2022-10-21T10:53:28.914Z,98022.53
2022-10-21T10:59:11.132Z,98029.97
2022-10-21T11:06:07.186Z,98022.78
2022-10-21T11:08:41.524Z,98021.28
2022-10-21T11:11:23.622Z,98016.19
2022-10-21T11:13:50.272Z,98008.41
2022-10-21T11:16:45.049Z,98006.78
2022-10-21T11:19:26.319Z,98002.59
2022-10-21T11:21:55.167Z,98014.88
2022-10-21T11:24:54.273Z,98017.69
2022-10-21T11:27:26.598Z,98019.50
2022-10-21T11:30:05.324Z,98008.63
2022-10-21T11:32:58.026Z,98006.44
2022-10-21T11:35:27.684Z,98010.31
2022-10-21T11:38:17.992Z,98013.91
2022-10-21T11:40:58.753Z,98009.88
2022-10-21T11:43:33.575Z,98017.66
2022-10-21T11:45:59.960Z,98011.59
2022-10-21T11:48:41.222Z,98011.59
2022-10-21T11:51:45.863Z,98011.28
2022-10-21T11:55:00.939Z,98009.72
2022-10-21T11:57:43.897Z,98007.31
2022-10-21T12:00:18.719Z,98006.50
2022-10-21T12:03:06.825Z,98005.59
2022-10-21T12:05:37.146Z,98011.91
2022-10-21T12:11:04.340Z,98005.97
2022-10-21T12:13:39.888Z,98005.72
2022-10-21T12:16:09.911Z,97997.06
2022-10-21T12:18:44.731Z,98004.63
2022-10-21T12:21:17.668Z,98019.16
2022-10-21T12:23:49.506Z,98008.78
2022-10-21T12:26:25.003Z,98006.34
2022-10-21T12:29:15.487Z,98007.22
2022-10-21T12:31:55.822Z,98003.94
2022-10-21T12:34:24.487Z,98005.22
2022-10-21T12:36:54.016Z,98007.53
2022-10-21T12:39:32.734Z,98003.25
2022-10-21T12:42:17.598Z,98013.16
2022-10-21T12:44:50.216Z,98010.81
2022-10-21T12:47:31.670Z,97996.13
2022-10-21T12:50:16.493Z,98002.22
2022-10-21T12:52:45.099Z,98002.75
2022-10-21T12:55:23.206Z,98002.44
2022-10-21T12:58:02.485Z,98003.97
2022-10-21T13:00:28.909Z,98003.84
2022-10-21T13:03:09.314Z,98005.78
2022-10-21T13:05:38.785Z,98012.72
2022-10-21T13:08:20.688Z,98004.69
2022-10-21T13:11:05.463Z,98008.13
2022-10-21T13:13:43.588Z,98001.50
2022-10-21T13:16:19.080Z,98006.72
2022-10-21T13:18:57.597Z,98000.56
2022-10-21T13:21:37.189Z,97990.66
2022-10-21T13:24:13.407Z,97998.22
2022-10-21T13:26:50.952Z,97992.94
2022-10-21T13:29:38.309Z,97989.31
2022-10-21T13:32:13.898Z,97991.53
2022-10-21T13:34:57.330Z,97989.88
2022-10-21T13:37:40.556Z,97980.59
2022-10-21T13:40:19.234Z,97986.13
2022-10-21T13:42:49.407Z,97974.19
2022-10-21T13:45:37.601Z,97977.66
2022-10-21T13:48:12.634Z,97974.22
2022-10-21T13:50:41.658Z,97981.25
2022-10-21T13:53:20.367Z,97986.06
2022-10-21T13:55:58.556Z,97990.63
2022-10-21T13:58:26.564Z,97995.75
2022-10-21T14:00:57.825Z,97978.00
2022-10-21T14:03:26.388Z,97975.44
2022-10-21T14:06:00.812Z,97983.78
2022-10-21T14:08:34.645Z,97986.53
2022-10-21T14:11:08.445Z,97983.16
2022-10-21T14:13:37.172Z,97982.84
2022-10-21T14:16:04.898Z,97985.31
2022-10-21T14:18:37.517Z,97979.22
2022-10-21T14:21:05.738Z,97971.28
2022-10-21T14:23:33.663Z,97983.34
2022-10-21T14:26:08.656Z,97989.59
2022-10-21T14:28:36.988Z,97983.88
2022-10-21T14:33:43.293Z,97976.75
2022-10-21T14:36:23.379Z,97971.69
2022-10-21T14:39:03.620Z,97967.31
2022-10-21T14:41:34.640Z,97966.59
2022-10-21T14:44:20.599Z,97971.44
2022-10-21T14:46:51.086Z,97964.88
2022-10-21T14:49:27.345Z,97965.31
2022-10-21T14:52:28.715Z,97960.50
2022-10-21T14:55:01.721Z,97959.84
2022-10-21T14:57:48.970Z,97955.31
2022-10-21T15:00:29.223Z,97954.03
2022-10-21T15:02:58.253Z,97950.69
2022-10-21T15:05:48.546Z,97954.97
2022-10-21T15:08:21.504Z,97967.72
2022-10-21T15:10:56.817Z,97964.63
2022-10-21T15:13:24.924Z,97963.63
2022-10-21T15:15:54.447Z,97963.09
2022-10-21T15:18:27.314Z,97964.50
2022-10-21T15:21:02.575Z,97965.53
2022-10-21T15:23:39.799Z,97963.38
2022-10-21T15:26:12.703Z,97962.56
2022-10-21T15:28:41.629Z,97966.84
2022-10-21T15:31:17.523Z,97963.63
2022-10-21T15:33:44.393Z,97953.44
2022-10-21T15:36:14.195Z,97960.44
2022-10-21T15:38:46.639Z,97958.66
2022-10-21T15:41:24.705Z,97952.22
2022-10-21T15:43:58.545Z,97951.72
2022-10-21T15:46:26.721Z,97956.19
2022-10-21T15:48:53.673Z,97945.38
2022-10-21T15:51:20.242Z,97947.06
2022-10-21T15:53:46.759Z,97949.41
2022-10-21T15:56:15.123Z,97963.13
2022-10-21T15:58:41.674Z,97960.31
2022-10-21T16:01:12.652Z,97954.50
2022-10-21T16:03:39.464Z,97952.34
2022-10-21T16:06:05.999Z,97953.88
2022-10-21T16:08:32.492Z,97946.50
2022-10-21T16:10:59.033Z,97949.28
2022-10-21T16:13:25.569Z,97944.59
2022-10-21T16:15:52.032Z,97957.75
2022-10-21T16:18:18.548Z,97969.88
2022-10-21T16:20:45.104Z,97976.78
2022-10-21T16:23:11.678Z,97953.97
2022-10-21T16:25:38.290Z,97961.94
2022-10-21T16:28:04.991Z,97971.63
2022-10-21T16:30:36.719Z,97970.41
2022-10-21T16:33:03.668Z,97972.75
2022-10-21T16:35:30.176Z,97969.94
2022-10-21T16:37:56.724Z,97973.13
2022-10-21T16:40:26.179Z,97981.63
2022-10-21T16:42:53.297Z,97990.81
2022-10-21T16:45:22.222Z,97987.63
2022-10-21T16:47:56.470Z,97988.34
2022-10-21T16:50:34.460Z,97984.41
2022-10-21T16:53:02.276Z,97983.69
2022-10-21T16:55:28.823Z,97985.47
2022-10-21T16:57:55.290Z,98000.06
2022-10-21T17:00:21.819Z,97999.69
2022-10-21T17:02:50.652Z,97998.47
2022-10-21T17:05:17.309Z,98000.94
2022-10-21T17:07:43.820Z,98005.44
2022-10-21T17:10:10.348Z,98005.53
2022-10-21T17:12:36.859Z,98004.59
2022-10-21T17:15:03.894Z,98005.38
2022-10-21T17:17:31.050Z,98011.97
2022-10-21T17:19:57.556Z,98012.63
2022-10-21T17:22:24.077Z,98019.53
2022-10-21T17:24:50.600Z,98024.69
2022-10-21T17:27:19.657Z,98020.97
2022-10-21T17:29:46.411Z,98018.63
2022-10-21T17:32:13.150Z,98019.44
2022-10-21T17:34:40.293Z,98012.97
2022-10-21T17:37:08.903Z,98005.25
2022-10-21T17:39:35.573Z,98000.41
2022-10-21T17:42:02.212Z,98001.56
2022-10-21T17:44:28.952Z,98011.16
2022-10-21T17:46:55.674Z,97998.38
2022-10-21T17:49:26.907Z,98007.81
2022-10-21T17:51:53.395Z,98003.53
2022-10-21T17:54:22.928Z,98006.91
2022-10-21T17:56:53.368Z,98012.59
2022-10-21T17:59:19.858Z,98014.53
2022-10-21T18:01:46.589Z,98011.31
2022-10-21T18:04:13.621Z,98006.34
2022-10-21T18:06:40.202Z,98006.56
2022-10-21T18:09:08.563Z,98002.97
2022-10-21T18:11:36.326Z,98012.44
2022-10-21T18:14:03.273Z,98013.63
2022-10-21T18:16:29.812Z,98012.44
2022-10-21T18:19:00.103Z,98011.59
2022-10-21T18:21:29.630Z,98012.41
2022-10-21T18:23:56.396Z,98012.63
2022-10-21T18:26:28.855Z,98012.41
2022-10-21T18:28:57.722Z,98006.03
2022-10-21T18:31:27.960Z,98000.81
2022-10-21T18:33:55.905Z,98012.19
2022-10-21T18:36:23.139Z,98013.00
2022-10-21T18:38:49.770Z,98003.19
2022-10-21T18:41:20.491Z,98007.31
2022-10-21T18:43:52.367Z,98016.09
2022-10-21T18:46:20.046Z,98022.56
2022-10-21T18:48:46.841Z,98020.19
2022-10-21T18:51:18.802Z,98030.22
2022-10-21T18:53:49.805Z,98024.81
2022-10-21T18:56:20.614Z,98027.50
2022-10-21T18:58:47.219Z,98033.34
2022-10-21T19:01:16.935Z,98034.72
2022-10-21T19:03:44.639Z,98043.06
2022-10-21T19:06:19.711Z,98040.75
2022-10-21T19:08:47.013Z,98044.56
2022-10-21T19:11:13.628Z,98038.81
2022-10-21T19:13:40.141Z,98032.31
2022-10-21T19:16:07.215Z,98045.38
2022-10-21T19:18:33.638Z,98038.78
2022-10-21T19:21:00.088Z,98034.06
2022-10-21T19:23:27.698Z,98035.56
2022-10-21T19:25:54.238Z,98026.78
2022-10-21T19:28:20.780Z,98018.28
2022-10-21T19:30:47.232Z,98033.97
2022-10-21T19:33:13.679Z,98027.81
2022-10-21T19:35:40.133Z,98029.72
2022-10-21T19:38:11.576Z,98023.69
2022-10-21T19:43:13.489Z,98022.53
2022-10-21T19:45:39.952Z,98023.25
2022-10-21T19:48:07.061Z,98017.00
2022-10-21T19:50:33.564Z,98021.41
2022-10-21T19:53:00.111Z,98025.09
2022-10-21T19:55:26.584Z,98025.53
2022-10-21T19:57:53.071Z,98024.28
2022-10-21T20:00:19.740Z,98025.19
2022-10-21T20:02:46.179Z,98023.69
2022-10-21T20:05:12.694Z,98035.16
2022-10-21T20:07:39.375Z,98033.25
2022-10-21T20:10:06.447Z,98038.53
2022-10-21T20:12:32.910Z,98041.09
2022-10-21T20:14:59.396Z,98029.25
2022-10-21T20:17:25.876Z,98030.34
2022-10-21T20:19:52.416Z,98047.72
2022-10-21T20:22:18.859Z,98053.31
2022-10-21T20:24:46.342Z,98058.25
2022-10-21T20:27:13.257Z,98057.09
2022-10-21T20:29:39.722Z,98064.59
2022-10-21T20:32:06.205Z,98064.69
2022-10-21T20:34:34.079Z,98061.22
2022-10-21T20:37:03.903Z,98067.66
2022-10-21T20:39:30.427Z,98063.53
2022-10-21T20:41:56.864Z,98055.31
2022-10-21T20:44:23.378Z,98045.50
2022-10-21T20:46:49.856Z,98039.59
2022-10-21T20:49:16.395Z,98030.47
2022-10-21T20:51:43.059Z,98027.94
2022-10-21T20:54:13.913Z,98024.81
2022-10-21T20:56:41.441Z,98014.75
2022-10-21T20:59:10.296Z,98022.03
2022-10-21T21:01:41.774Z,98022.69
2022-10-21T21:04:12.102Z,98033.88
2022-10-21T21:06:41.409Z,98049.34
2022-10-21T21:09:33.078Z,98059.59
2022-10-21T21:11:55.122Z,98077.25
2022-10-21T21:14:21.745Z,98066.38
2022-10-21T21:16:48.241Z,98061.09
2022-10-21T21:19:14.759Z,98056.59
2022-10-21T21:21:41.341Z,98046.13
2022-10-21T21:24:07.872Z,98055.38
2022-10-21T21:26:36.589Z,98056.22
2022-10-21T21:29:06.126Z,98065.41
2022-10-21T21:31:33.904Z,98061.34
2022-10-21T21:34:00.568Z,98066.09
2022-10-21T21:36:27.148Z,98068.00
2022-10-21T21:38:54.112Z,98073.00
2022-10-21T21:41:22.823Z,98068.50
2022-10-21T21:43:51.084Z,98060.84
2022-10-21T21:46:25.311Z,98060.50
2022-10-21T21:48:56.022Z,98062.63
2022-10-21T21:51:26.179Z,98061.16
2022-10-21T21:53:53.254Z,98063.31
2022-10-21T21:56:20.491Z,98060.84
2022-10-21T21:58:51.686Z,98060.91
2022-10-21T22:01:20.502Z,98058.28
2022-10-21T22:03:49.106Z,98068.50
2022-10-21T22:06:18.003Z,98066.22
2022-10-21T22:08:45.214Z,98062.13
2022-10-21T22:11:14.913Z,98063.22
2022-10-21T22:13:41.797Z,98062.91
2022-10-21T22:16:10.466Z,98067.47
2022-10-21T22:18:37.018Z,98067.19
2022-10-21T22:21:06.866Z,98071.03
2022-10-21T22:23:33.950Z,98064.91
2022-10-21T22:26:00.488Z,98059.31
2022-10-21T22:28:27.361Z,98071.09
2022-10-21T22:30:58.025Z,98070.88
2022-10-21T22:33:25.378Z,98071.03
2022-10-21T22:35:52.131Z,98067.50
2022-10-21T22:38:18.948Z,98070.59
2022-10-21T22:40:45.519Z,98077.63
2022-10-21T22:43:11.975Z,98067.16
2022-10-21T22:45:38.435Z,98066.66
2022-10-21T22:48:04.978Z,98077.25
2022-10-21T22:50:31.471Z,98052.97
2022-10-21T22:52:57.956Z,98038.84
2022-10-21T22:55:24.387Z,98061.28
2022-10-21T22:57:50.873Z,98060.28
2022-10-21T23:00:17.393Z,98054.06
2022-10-21T23:02:43.942Z,98046.44
2022-10-21T23:05:10.426Z,98049.06
2022-10-21T23:07:37.020Z,98058.78
2022-10-21T23:10:04.302Z,98075.06
2022-10-21T23:12:30.800Z,98070.50
2022-10-21T23:14:57.274Z,98082.34
2022-10-21T23:17:25.594Z,98092.00
2022-10-21T23:19:52.689Z,98100.97
2022-10-21T23:22:19.652Z,98111.44
2022-10-21T23:24:46.174Z,98114.06
2022-10-21T23:27:12.763Z,98128.81
2022-10-21T23:29:39.260Z,98132.50
2022-10-21T23:32:05.807Z,98122.84
2022-10-21T23:34:32.415Z,98137.38
2022-10-21T23:36:58.875Z,98134.78
2022-10-21T23:39:25.425Z,98131.16
2022-10-21T23:41:51.880Z,98132.25
2022-10-21T23:44:18.402Z,98128.88
2022-10-21T23:46:44.873Z,98128.22
2022-10-21T23:49:11.355Z,98128.72
2022-10-21T23:51:38.472Z,98125.69
2022-10-21T23:54:05.034Z,98126.72
2022-10-21T23:56:32.456Z,98129.44
2022-10-21T23:59:01.004Z,98121.66
